Time;durP1;ratioP1;P1;durP2;ratioP2;P2;SDS_P1;SDS_P2;PMS_P1;PMS_P2;Temp;Humidity;BMP_temperature;BMP_pressure;BME280_temperature;BME280_humidity;BME280_pressure;Samples;Min_cycle;Max_cycle;Signal;HPM_P1;HPM_P2
2020/12/01 00:00:44;;;;;;;37.15;21.20;;;;;;;0.47;80.38;100954.20;1737913;81;20995;-52
2020/12/01 00:03:12;;;;;;;36.88;20.65;;;;;;;0.44;80.61;100955.97;1735990;80;21585;-52
2020/12/01 00:09:09;;;;;;;33.88;17.77;;;;;;;0.44;81.03;100946.23;1770198;78;22875;-53
2020/12/01 00:11:37;;;;;;;34.20;20.08;;;;;;;0.37;81.08;100947.02;1735075;80;21032;-54
2020/12/01 00:14:05;;;;;;;34.35;19.67;;;;;;;0.36;81.23;100953.21;1730975;80;22008;-51
2020/12/01 00:16:34;;;;;;;31.82;19.57;;;;;;;0.36;81.24;100950.56;1736931;80;21040;-52
2020/12/01 00:19:02;;;;;;;32.60;18.92;;;;;;;0.37;81.36;100953.66;1730742;80;21655;-51
2020/12/01 00:21:31;;;;;;;34.88;20.08;;;;;;;0.39;81.52;100957.67;1733744;80;21010;-51
2020/12/01 00:23:58;;;;;;;30.90;18.62;;;;;;;0.40;81.40;100962.98;1731960;80;20966;-50
2020/12/01 00:26:26;;;;;;;33.80;19.37;;;;;;;0.41;81.45;100970.07;1731268;80;21433;-51
2020/12/01 00:28:54;;;;;;;32.20;18.23;;;;;;;0.40;81.46;100977.58;1729885;80;21010;-54
2020/12/01 00:31:22;;;;;;;31.60;17.67;;;;;;;0.44;81.64;100983.39;1730784;80;21018;-50
2020/12/01 00:33:50;;;;;;;30.35;16.27;;;;;;;0.46;81.48;100971.01;1732541;80;21133;-54
2020/12/01 00:36:18;;;;;;;29.07;15.95;;;;;;;0.45;81.37;100971.89;1729268;80;21144;-50
2020/12/01 00:38:45;;;;;;;30.90;17.60;;;;;;;0.40;81.51;100975.38;1734789;80;21541;-51
2020/12/01 00:41:13;;;;;;;27.37;17.45;;;;;;;0.35;81.67;100972.66;1733975;80;21581;-50
2020/12/01 00:43:41;;;;;;;25.55;15.63;;;;;;;0.37;81.82;100970.91;1730659;80;21607;-51
2020/12/01 00:46:09;;;;;;;25.52;15.10;;;;;;;0.34;81.71;100962.93;1730999;80;21006;-51
2020/12/01 00:48:37;;;;;;;28.70;17.00;;;;;;;0.28;81.92;100960.22;1735767;80;21113;-51
2020/12/01 00:51:04;;;;;;;29.20;16.17;;;;;;;0.29;81.97;100958.02;1729076;80;21394;-51
2020/12/01 00:53:32;;;;;;;29.75;16.42;;;;;;;0.30;82.08;100957.12;1733868;80;21562;-52
2020/12/01 00:56:00;;;;;;;25.82;15.72;;;;;;;0.30;82.00;100955.80;1730871;80;21475;-51
2020/12/01 00:58:28;;;;;;;26.27;15.32;;;;;;;0.28;82.09;100960.22;1730180;80;21121;-49
2020/12/01 01:01:06;;;;;;;28.20;16.55;;;;;;;0.29;82.13;100967.30;1728964;80;21696;-50
2020/12/01 01:03:35;;;;;;;23.98;15.35;;;;;;;0.32;82.19;100954.08;1725377;80;21372;-49
2020/12/01 01:06:03;;;;;;;28.23;16.60;;;;;;;0.36;82.13;100954.53;1729591;80;21528;-50
2020/12/01 01:08:31;;;;;;;29.95;15.40;;;;;;;0.37;82.01;100953.66;1722466;80;21719;-49
2020/12/01 01:10:59;;;;;;;27.42;16.77;;;;;;;0.34;81.91;100950.99;1718646;80;21147;-50
2020/12/01 01:13:26;;;;;;;28.10;17.15;;;;;;;0.32;82.01;100955.41;1721167;81;21609;-52
2020/12/01 01:15:55;;;;;;;27.45;16.80;;;;;;;0.31;82.11;100956.25;1718327;81;21387;-52
2020/12/01 01:18:23;;;;;;;26.05;15.50;;;;;;;0.32;82.07;100962.04;1719633;80;21026;-52
2020/12/01 01:20:51;;;;;;;24.45;14.65;;;;;;;0.33;81.94;100965.14;1715922;81;21612;-51
2020/12/01 01:23:19;;;;;;;25.12;15.35;;;;;;;0.35;81.87;100960.72;1725732;81;21189;-50
2020/12/01 01:25:47;;;;;;;23.05;14.95;;;;;;;0.33;81.93;100963.81;1717026;81;21112;-50
2020/12/01 01:28:15;;;;;;;28.12;16.10;;;;;;;0.31;81.91;100964.66;1717231;80;21382;-49
2020/12/01 01:33:20;;;;;;;21.90;14.53;;;;;;;0.33;82.01;100965.58;1841223;74;22023;-51
2020/12/01 01:35:50;;;;;;;23.25;14.73;;;;;;;0.25;82.00;100962.82;1818891;77;20993;-50
2020/12/01 01:38:19;;;;;;;26.97;16.40;;;;;;;0.24;82.19;100969.00;1820988;77;22105;-51
2020/12/01 01:40:47;;;;;;;28.87;16.93;;;;;;;0.26;82.24;100968.58;1819794;77;21002;-51
2020/12/01 01:43:15;;;;;;;26.68;14.60;;;;;;;0.25;82.30;100970.34;1820056;77;20993;-51
2020/12/01 01:45:47;;;;;;;28.07;16.35;;;;;;;0.28;82.50;100972.16;1821599;77;21001;-51
2020/12/01 01:48:31;;;;;;;29.27;17.75;;;;;;;0.31;82.54;100976.15;1819878;77;21104;-51
2020/12/01 01:51:14;;;;;;;30.95;16.75;;;;;;;0.38;82.52;100972.71;1813706;78;22703;-51
2020/12/01 01:53:46;;;;;;;29.85;17.05;;;;;;;0.32;82.56;100970.00;1764975;79;21521;-51
2020/12/01 01:56:19;;;;;;;30.00;17.67;;;;;;;0.26;82.66;100969.90;1745687;79;21839;-52
2020/12/01 01:58:50;;;;;;;29.67;17.02;;;;;;;0.20;82.85;100967.19;1741302;81;21633;-52
2020/12/01 02:01:21;;;;;;;36.25;20.20;;;;;;;0.20;83.10;100969.84;1746549;80;21041;-51
2020/12/01 02:03:54;;;;;;;37.90;20.40;;;;;;;0.18;83.37;100966.29;1745275;81;21037;-52
2020/12/01 02:06:33;;;;;;;31.90;19.42;;;;;;;0.19;83.51;100973.37;1750722;79;20977;-51
2020/12/01 02:09:04;;;;;;;34.08;19.52;;;;;;;0.16;83.56;100974.23;1745974;81;21374;-51
2020/12/01 02:11:33;;;;;;;32.33;18.65;;;;;;;0.16;83.74;100962.70;1744729;79;21872;-50
2020/12/01 02:14:36;;;;;;;32.20;18.02;;;;;;;0.17;83.79;100967.17;1745275;80;21167;-52
2020/12/01 02:17:31;;;;;;;34.10;17.82;;;;;;;0.13;83.89;100960.04;1743104;81;22075;-50
2020/12/01 02:20:06;;;;;;;30.90;20.55;;;;;;;0.06;84.00;100960.85;1748527;80;21119;-51
2020/12/01 02:22:35;;;;;;;30.50;18.50;;;;;;;0.05;84.32;100961.70;1744753;81;21378;-50
2020/12/01 02:25:03;;;;;;;30.10;17.20;;;;;;;0.06;84.41;100960.85;1745058;79;21006;-51
2020/12/01 02:27:31;;;;;;;38.65;19.67;;;;;;;0.06;84.57;100963.51;1744332;79;21135;-49
2020/12/01 02:29:59;;;;;;;36.20;20.57;;;;;;;0.05;84.52;100961.70;1744440;81;21002;-49
2020/12/01 02:32:27;;;;;;;27.95;17.65;;;;;;;0.04;84.70;100970.53;1743764;81;21104;-52
2020/12/01 02:34:58;;;;;;;28.05;18.27;;;;;;;0.05;84.83;100988.22;1746937;81;21370;-51
2020/12/01 02:37:28;;;;;;;31.02;19.00;;;;;;;0.05;84.82;100988.22;1743071;80;21143;-49
2020/12/01 02:39:56;;;;;;;33.15;19.77;;;;;;;0.03;84.93;100988.20;1742367;81;21160;-51
2020/12/01 02:42:27;;;;;;;31.75;19.95;;;;;;;0.02;85.33;100996.16;1748948;81;21580;-49
2020/12/01 02:44:56;;;;;;;30.03;18.23;;;;;;;0.06;85.36;101001.95;1742054;81;21595;-52
2020/12/01 02:47:26;;;;;;;27.37;17.87;;;;;;;0.10;85.40;101002.42;1744164;81;21271;-50
2020/12/01 02:49:54;;;;;;;31.20;18.32;;;;;;;0.11;85.45;101014.84;1742162;79;21151;-51
2020/12/01 02:52:23;;;;;;;31.30;18.23;;;;;;;0.13;85.27;101015.74;1734498;81;21453;-51
2020/12/01 02:54:53;;;;;;;29.63;19.23;;;;;;;0.12;85.25;101013.97;1735331;80;21419;-51
2020/12/01 02:57:21;;;;;;;29.55;18.65;;;;;;;0.07;85.32;101009.03;1733374;80;21155;-50
2020/12/01 02:59:49;;;;;;;30.32;17.35;;;;;;;0.07;85.53;101007.71;1731617;81;21565;-51
2020/12/01 03:02:17;;;;;;;29.65;17.77;;;;;;;0.09;85.61;101001.54;1735062;80;21680;-51
2020/12/01 03:04:45;;;;;;;31.15;18.50;;;;;;;0.10;85.57;101003.75;1733353;80;21128;-49
2020/12/01 03:07:13;;;;;;;26.48;16.77;;;;;;;0.08;85.57;100998.88;1731924;81;21200;-50
2020/12/01 03:09:40;;;;;;;29.15;18.50;;;;;;;0.05;85.51;100993.52;1736530;81;21140;-50
2020/12/01 03:12:09;;;;;;;27.95;16.40;;;;;;;0.01;85.77;100993.05;1732357;81;22236;-50
2020/12/01 03:14:36;;;;;;;33.88;18.92;;;;;;;0.02;85.90;100989.52;1733697;80;21137;-51
2020/12/01 03:17:05;;;;;;;29.85;18.30;;;;;;;-0.03;85.89;100991.67;1735852;81;21525;-50
2020/12/01 03:19:33;;;;;;;30.17;17.55;;;;;;;-0.05;86.02;100993.43;1735021;81;21513;-49
2020/12/01 03:22:01;;;;;;;32.60;19.40;;;;;;;-0.06;86.02;100991.62;1736755;81;21675;-51
2020/12/01 03:24:29;;;;;;;30.43;18.82;;;;;;;-0.06;86.10;100988.97;1733740;81;21355;-52
2020/12/01 03:26:57;;;;;;;29.35;17.30;;;;;;;-0.06;86.26;100998.25;1734673;80;21498;-51
2020/12/01 03:29:25;;;;;;;29.15;18.70;;;;;;;-0.05;86.25;101004.04;1734721;81;21034;-52
2020/12/01 03:31:53;;;;;;;27.30;17.50;;;;;;;-0.04;86.34;101008.47;1737846;80;21148;-52
2020/12/01 03:34:21;;;;;;;26.82;16.27;;;;;;;-0.03;86.33;101004.05;1734037;81;21164;-50
2020/12/01 03:36:49;;;;;;;26.93;17.32;;;;;;;-0.02;86.32;100998.75;1731282;80;21382;-50
2020/12/01 03:39:17;;;;;;;28.32;15.78;;;;;;;-0.07;86.19;101000.45;1734406;81;21352;-51
2020/12/01 03:41:44;;;;;;;29.20;16.62;;;;;;;-0.10;86.27;101008.39;1739568;80;21558;-50
2020/12/01 03:44:12;;;;;;;29.48;18.02;;;;;;;-0.14;86.38;101003.91;1731695;81;21117;-51
2020/12/01 03:46:40;;;;;;;27.17;17.98;;;;;;;-0.15;86.62;101002.57;1733975;81;21029;-51
2020/12/01 03:49:08;;;;;;;29.55;18.12;;;;;;;-0.17;86.63;101001.20;1736803;81;21407;-51
2020/12/01 03:51:36;;;;;;;30.37;17.57;;;;;;;-0.14;86.77;101002.58;1748739;81;21022;-50
2020/12/01 03:54:05;;;;;;;27.00;16.35;;;;;;;-0.15;86.66;101007.44;1749710;80;21123;-49
2020/12/01 03:56:33;;;;;;;26.50;16.80;;;;;;;-0.14;86.76;101004.34;1745744;80;21139;-53
2020/12/01 03:59:01;;;;;;;26.82;16.73;;;;;;;-0.19;86.80;101001.62;1747554;81;20993;-50
2020/12/01 04:01:28;;;;;;;27.13;16.73;;;;;;;-0.23;86.93;101006.42;1746559;79;21404;-51
2020/12/01 04:03:56;;;;;;;29.82;18.35;;;;;;;-0.26;87.10;101003.75;1753695;80;21576;-48
2020/12/01 04:06:24;;;;;;;30.82;16.85;;;;;;;-0.24;87.36;100996.70;1745280;80;21426;-49
2020/12/01 04:08:52;;;;;;;26.07;17.05;;;;;;;-0.22;87.21;100997.59;1747898;81;21516;-49
2020/12/01 04:11:20;;;;;;;30.32;17.52;;;;;;;-0.23;87.15;101001.12;1746897;81;21124;-50
2020/12/01 04:13:48;;;;;;;28.32;17.02;;;;;;;-0.26;87.29;100993.15;1747388;79;21167;-50
2020/12/01 04:16:15;;;;;;;25.90;16.85;;;;;;;-0.23;87.50;100990.52;1746693;79;21009;-50
2020/12/01 04:18:43;;;;;;;25.10;15.63;;;;;;;-0.19;87.43;100995.00;1748083;79;21154;-50
2020/12/01 04:21:11;;;;;;;27.30;16.85;;;;;;;-0.18;87.31;100994.13;1739727;81;20993;-52
2020/12/01 04:23:39;;;;;;;26.52;17.17;;;;;;;-0.23;87.25;100994.50;1749860;81;21114;-50
2020/12/01 04:26:07;;;;;;;29.85;17.73;;;;;;;-0.24;87.41;100996.70;1750298;81;21365;-51
2020/12/01 04:28:35;;;;;;;31.00;18.62;;;;;;;-0.22;87.55;101002.90;1749978;81;21001;-51
2020/12/01 04:31:03;;;;;;;33.50;19.37;;;;;;;-0.21;87.50;100999.41;1746531;81;21001;-52
2020/12/01 04:33:31;;;;;;;31.35;20.20;;;;;;;-0.26;87.49;100998.45;1750279;79;21015;-49
2020/12/01 04:35:58;;;;;;;28.83;17.60;;;;;;;-0.32;87.61;100994.36;1746193;79;20969;-51
2020/12/01 04:38:26;;;;;;;28.42;17.15;;;;;;;-0.37;87.81;100990.78;1751941;79;21317;-51
2020/12/01 04:40:54;;;;;;;30.30;17.12;;;;;;;-0.40;87.95;100990.30;1746327;81;21017;-52
2020/12/01 04:43:33;;;;;;;26.93;16.90;;;;;;;-0.42;88.16;101002.64;1727067;81;21180;-52
2020/12/01 04:46:02;;;;;;;28.65;18.42;;;;;;;-0.41;88.23;100999.55;1722289;81;21191;-54
2020/12/01 04:48:46;;;;;;;28.62;15.90;;;;;;;-0.42;88.33;101000.00;1747408;79;21156;-51
2020/12/01 04:51:35;;;;;;;32.42;17.92;;;;;;;-0.40;88.43;100996.03;1721891;81;21136;-49
2020/12/01 04:54:36;;;;;;;26.15;16.67;;;;;;;-0.41;88.46;100992.93;1748639;81;21126;-51
2020/12/01 04:57:27;;;;;;;28.30;17.50;;;;;;;-0.40;88.53;100989.41;1746168;81;21536;-56
2020/12/01 05:00:18;;;;;;;26.93;15.95;;;;;;;-0.38;88.66;100998.26;1720179;81;21124;-51
2020/12/01 05:03:11;;;;;;;31.85;18.67;;;;;;;-0.39;88.57;100997.37;1746959;81;21948;-52
2020/12/01 05:08:37;;;;;;;29.07;17.73;;;;;;;-0.40;88.65;101003.98;1747924;81;21131;-51
2020/12/01 05:11:53;;;;;;;27.07;17.05;;;;;;;-0.36;88.73;101013.33;1817566;76;22771;-53
2020/12/01 05:14:34;;;;;;;28.10;16.90;;;;;;;-0.41;88.76;101022.08;1769183;79;20993;-53
2020/12/01 05:17:50;;;;;;;30.32;19.00;;;;;;;-0.44;88.80;101024.67;1728831;80;21499;-52
2020/12/01 05:20:18;;;;;;;26.65;15.80;;;;;;;-0.43;88.90;101022.03;1729233;80;21012;-49
2020/12/01 05:22:56;;;;;;;31.93;18.23;;;;;;;-0.37;89.01;101011.99;1697173;82;22179;-52
2020/12/01 05:25:31;;;;;;;29.40;18.35;;;;;;;-0.31;88.86;101006.77;1870969;74;22616;-52
2020/12/01 05:28:08;;;;;;;29.10;17.27;;;;;;;-0.34;88.75;101009.36;1832559;75;21104;-51
2020/12/01 05:30:36;;;;;;;25.10;15.65;;;;;;;-0.39;88.65;101013.27;1835024;77;22251;-51
2020/12/01 05:33:28;;;;;;;26.12;16.48;;;;;;;-0.40;88.75;101014.58;1836887;77;21548;-52
2020/12/01 05:36:26;;;;;;;25.80;15.75;;;;;;;-0.34;88.88;101015.99;1815295;78;22917;-55
2020/12/01 05:39:00;;;;;;;28.67;17.92;;;;;;;-0.37;88.84;101015.97;1769480;77;21119;-52
2020/12/01 05:41:32;;;;;;;26.95;15.72;;;;;;;-0.34;88.82;101018.64;1752067;79;21140;-54
2020/12/01 05:44:07;;;;;;;30.90;16.73;;;;;;;-0.31;88.68;101024.00;1752754;79;21553;-52
2020/12/01 05:46:44;;;;;;;27.22;17.52;;;;;;;-0.31;88.53;101026.65;1752169;79;21529;-52
2020/12/01 05:49:43;;;;;;;26.68;15.95;;;;;;;-0.33;88.54;101023.06;1755275;79;21430;-53
2020/12/01 05:52:24;;;;;;;24.80;15.03;;;;;;;-0.33;88.54;101021.73;1749480;79;20933;-54
2020/12/01 05:55:14;;;;;;;29.30;16.75;;;;;;;-0.42;88.53;101022.95;1724661;79;21308;-55
2020/12/01 05:57:42;;;;;;;27.80;16.82;;;;;;;-0.47;88.68;101023.32;1752900;79;21046;-53
2020/12/01 06:00:17;;;;;;;28.30;16.90;;;;;;;-0.45;88.94;101025.55;1753197;79;20994;-51
2020/12/01 06:03:10;;;;;;;32.23;18.77;;;;;;;-0.43;88.84;101031.75;1752477;79;21557;-53
2020/12/01 06:05:39;;;;;;;33.80;18.10;;;;;;;-0.47;88.77;101027.30;1752352;80;21108;-52
2020/12/01 06:08:33;;;;;;;31.00;17.65;;;;;;;-0.50;88.97;101024.59;1739281;80;21190;-52
2020/12/01 06:11:37;;;;;;;33.02;18.30;;;;;;;-0.42;89.24;101030.91;1750778;80;21018;-55
2020/12/01 06:14:28;;;;;;;31.25;18.25;;;;;;;-0.30;89.06;101031.97;1784331;78;23304;-51
2020/12/01 06:17:01;;;;;;;29.87;18.67;;;;;;;-0.31;89.01;101038.58;1748900;79;21002;-50
2020/12/01 06:19:59;;;;;;;29.10;17.70;;;;;;;-0.28;88.73;101030.22;1726298;79;21627;-53
2020/12/01 06:23:24;;;;;;;26.60;18.87;;;;;;;-0.28;88.69;101027.56;1757793;78;28174;-51
2020/12/01 06:26:19;;;;;;;27.25;17.20;;;;;;;-0.31;88.63;101039.91;1719159;79;20950;-54
2020/12/01 06:29:29;;;;;;;27.50;16.62;;;;;;;-0.32;88.80;101040.34;1754703;79;21414;-51
2020/12/01 06:32:34;;;;;;;25.70;16.10;;;;;;;-0.33;88.83;101044.27;1751797;79;21388;-51
2020/12/01 06:35:44;;;;;;;28.70;17.50;;;;;;;-0.33;88.84;101041.62;1804565;78;23279;-51
2020/12/01 06:38:36;;;;;;;32.90;19.55;;;;;;;-0.43;89.12;101041.02;1767584;79;20994;-53
2020/12/01 06:41:15;;;;;;;28.45;19.37;;;;;;;-0.38;89.37;101041.55;1720793;79;21377;-53
2020/12/01 06:43:53;;;;;;;29.10;17.70;;;;;;;-0.36;89.34;101046.89;1748211;79;21612;-52
2020/12/01 06:46:51;;;;;;;30.02;17.82;;;;;;;-0.28;89.23;101045.23;1821589;75;22697;-53
2020/12/01 06:49:24;;;;;;;30.12;16.87;;;;;;;-0.34;89.29;101053.09;1762222;78;21183;-52
2020/12/01 06:51:59;;;;;;;31.68;18.27;;;;;;;-0.37;89.36;101053.06;1756201;78;21338;-53
2020/12/01 06:54:27;;;;;;;23.90;14.30;;;;;;;-0.34;89.58;101051.77;1758008;79;21272;-53
2020/12/01 06:57:03;;;;;;;28.65;16.65;;;;;;;-0.30;89.34;101052.28;1765922;78;21461;-60
2020/12/01 06:59:31;;;;;;;23.18;14.78;;;;;;;-0.31;89.33;101050.50;1755974;78;21005;-52
2020/12/01 07:02:09;;;;;;;23.45;15.40;;;;;;;-0.31;89.26;101045.20;1758817;79;21009;-50
2020/12/01 07:04:44;;;;;;;22.82;15.08;;;;;;;-0.23;89.50;101050.16;1792430;78;22867;-56
2020/12/01 07:07:30;;;;;;;26.00;16.23;;;;;;;-0.21;89.39;101056.41;1763840;79;20958;-53
2020/12/01 07:09:58;;;;;;;25.92;14.55;;;;;;;-0.21;89.26;101055.08;1759989;79;22132;-57
2020/12/01 07:12:35;;;;;;;26.02;15.90;;;;;;;-0.19;89.21;101059.95;1761470;79;21711;-54
2020/12/01 07:15:17;;;;;;;25.88;15.88;;;;;;;-0.25;89.06;101061.19;1757991;79;21052;-58
2020/12/01 07:17:58;;;;;;;;;;;;;;;-0.27;89.25;101060.27;1763088;79;21018;-53
2020/12/01 07:20:39;;;;;;;24.70;15.13;;;;;;;-0.32;89.51;101058.89;1761663;79;20565;-53
2020/12/01 07:23:24;;;;;;;27.05;15.72;;;;;;;-0.27;89.60;101055.88;1809215;76;22853;-52
2020/12/01 07:26:03;;;;;;;21.65;13.83;;;;;;;-0.25;89.71;101058.55;1786824;79;21004;-50
2020/12/01 07:28:38;;;;;;;27.77;16.02;;;;;;;-0.19;89.54;101057.30;1784140;79;21552;-54
2020/12/01 07:31:26;;;;;;;25.57;14.58;;;;;;;-0.18;89.43;101063.05;1786284;79;21001;-55
2020/12/01 07:33:58;;;;;;;20.20;13.70;;;;;;;-0.11;89.53;101063.59;1782644;79;20973;-55
2020/12/01 07:36:39;;;;;;;29.23;13.03;;;;;;;-0.10;89.31;101065.83;1781916;79;20923;-51
2020/12/01 07:39:27;;;;;;;21.57;12.82;;;;;;;-0.13;89.06;101063.13;1783164;79;21049;-52
2020/12/01 07:42:01;;;;;;;28.07;14.10;;;;;;;-0.13;89.28;101061.36;1782857;78;21191;-52
2020/12/01 07:44:41;;;;;;;19.10;12.30;;;;;;;-0.07;89.18;101060.55;1782446;78;21041;-52
2020/12/01 07:47:21;;;;;;;22.87;14.35;;;;;;;-0.03;89.08;101063.27;1778655;78;20970;-54
2020/12/01 07:50:14;;;;;;;24.02;13.03;;;;;;;-0.03;88.78;101051.78;1784714;78;21183;-58
2020/12/01 07:52:44;;;;;;;22.48;13.78;;;;;;;-0.03;88.85;101063.27;1781902;79;21520;-55
2020/12/01 07:55:43;;;;;;;21.30;12.55;;;;;;;0.02;88.77;101055.39;1781960;79;21928;-51
2020/12/01 07:58:17;;;;;;;22.45;14.18;;;;;;;0.03;88.70;101062.47;1782692;78;21624;-61
2020/12/01 08:00:54;;;;;;;21.20;12.85;;;;;;;0.03;88.79;101056.27;1783313;79;21123;-56
2020/12/01 08:03:34;;;;;;;19.57;12.50;;;;;;;0.07;88.70;101047.49;1784000;78;21104;-51
2020/12/01 08:06:14;;;;;;;24.25;14.68;;;;;;;0.11;88.61;101059.94;1786479;79;21563;-53
2020/12/01 08:08:45;;;;;;;24.12;13.93;;;;;;;0.08;88.52;101058.55;1785273;79;21327;-54
2020/12/01 08:11:15;;;;;;;19.87;13.03;;;;;;;0.12;88.57;101056.41;1782365;79;21160;-52
2020/12/01 08:13:43;;;;;;;21.68;13.72;;;;;;;0.17;88.62;101048.96;1784979;78;21136;-54
2020/12/01 08:16:18;;;;;;;23.18;12.82;;;;;;;0.19;88.35;101044.98;1780791;79;22075;-53
2020/12/01 08:18:46;;;;;;;20.25;12.43;;;;;;;0.20;88.40;101049.42;1784718;79;20985;-53
2020/12/01 08:21:23;;;;;;;30.37;14.65;;;;;;;0.20;88.25;101052.07;1784342;79;22234;-51
2020/12/01 08:23:52;;;;;;;22.27;14.25;;;;;;;0.16;88.20;101054.22;1783647;79;21222;-50
2020/12/01 08:26:26;;;;;;;19.80;12.75;;;;;;;0.16;88.33;101051.56;1780844;79;21147;-50
2020/12/01 08:29:06;;;;;;;23.57;14.20;;;;;;;0.15;88.38;101053.77;1757760;79;21718;-50
2020/12/01 08:32:00;;;;;;;25.20;15.60;;;;;;;0.15;88.74;101051.13;1782375;79;21068;-55
2020/12/01 08:34:48;;;;;;;27.77;15.08;;;;;;;0.17;88.88;101052.05;1782983;79;21258;-52
2020/12/01 08:37:43;;;;;;;24.90;15.95;;;;;;;0.20;89.03;101054.73;1753602;79;21518;-56
2020/12/01 08:40:21;;;;;;;31.87;17.50;;;;;;;0.26;88.96;101053.47;1781734;79;21167;-51
2020/12/01 08:43:37;;;;;;;26.12;15.88;;;;;;;0.31;88.72;101054.86;1781076;79;21216;-53
2020/12/01 08:46:10;;;;;;;25.45;15.58;;;;;;;0.33;88.61;101051.38;1780938;79;21596;-52
2020/12/01 08:49:07;;;;;;;25.95;15.40;;;;;;;0.36;88.63;101050.06;1781279;79;21325;-50
2020/12/01 08:51:39;;;;;;;41.30;17.05;;;;;;;0.41;88.57;101051.01;1779746;79;20946;-53
2020/12/01 08:54:25;;;;;;;32.35;16.85;;;;;;;0.42;88.34;101054.55;1780864;79;21199;-55
2020/12/01 08:57:12;;;;;;;22.13;14.18;;;;;;;0.41;88.30;101048.36;1783150;79;21530;-54
2020/12/01 08:59:51;;;;;;;23.77;14.25;;;;;;;0.44;88.40;101048.84;1782785;79;21406;-53
2020/12/01 09:02:20;;;;;;;22.02;14.35;;;;;;;0.45;88.04;101055.48;1752027;79;21393;-51
2020/12/01 09:04:58;;;;;;;21.48;13.22;;;;;;;0.41;88.21;101044.38;1780619;78;21175;-52
2020/12/01 09:10:23;;;;;;;25.50;14.85;;;;;;;0.43;88.20;101025.41;1858417;74;22636;-54
2020/12/01 09:13:15;;;;;;;24.00;13.68;;;;;;;0.40;88.13;101034.64;1832851;76;21081;-59
2020/12/01 09:21:50;;;;;;;21.10;13.22;;;;;;;0.55;88.30;101029.06;1817438;77;22706;-55
2020/12/01 09:23:32;;;;;;;21.87;12.85;;;;;;;0.51;88.03;101027.69;1770423;79;21013;-54
2020/12/01 09:26:03;;;;;;;22.37;12.82;;;;;;;0.56;87.78;101031.72;1745691;79;22038;-55
2020/12/01 09:28:31;;;;;;;26.52;13.15;;;;;;;0.59;87.47;101017.61;1751252;80;21014;-53
2020/12/01 09:31:02;;;;;;;19.17;12.13;;;;;;;0.63;87.08;101015.41;1748003;80;21074;-57
2020/12/01 09:33:30;;;;;;;19.37;11.03;;;;;;;0.62;86.63;101008.33;1752028;80;21636;-55
2020/12/01 09:35:58;;;;;;;17.27;10.70;;;;;;;0.60;86.44;101002.13;1677552;82;21522;-58
2020/12/01 09:38:26;;;;;;;14.70;8.88;;;;;;;0.65;86.53;101004.40;1685239;83;22170;-53
2020/12/01 09:40:53;;;;;;;15.95;10.35;;;;;;;0.68;86.07;100997.77;1674812;82;21555;-55
2020/12/01 09:43:32;;;;;;;16.25;9.93;;;;;;;0.70;86.02;100996.04;1714399;82;21046;-53
2020/12/01 09:45:58;;;;;;;20.97;10.40;;;;;;;0.74;85.77;101000.48;1712533;81;21442;-55
2020/12/01 09:48:33;;;;;;;16.32;10.63;;;;;;;0.78;85.43;101000.97;1715049;82;20991;-58
2020/12/01 09:50:59;;;;;;;13.98;8.25;;;;;;;0.78;85.20;100996.98;1717918;81;21975;-60
2020/12/01 09:56:41;;;;;;;13.03;9.23;;;;;;;0.71;84.31;100992.50;1698004;83;21188;-54
2020/12/01 10:10:28;;;;;;;15.68;9.05;;;;;;;0.71;85.10;100997.81;1697664;83;20950;-53
2020/12/01 10:21:53;;;;;;;11.57;8.50;;;;;;;0.74;84.83;100986.77;1798811;77;28072;-55
2020/12/01 10:34:46;;;;;;;15.55;8.55;;;;;;;0.76;84.72;100976.18;1765334;79;21404;-58
2020/12/01 10:37:11;;;;;;;12.43;8.23;;;;;;;0.77;84.94;100975.30;1763603;79;21045;-57
2020/12/01 10:39:39;;;;;;;15.18;9.20;;;;;;;0.74;85.21;100979.24;1757536;79;21668;-51
2020/12/01 10:42:09;;;;;;;13.50;8.80;;;;;;;0.71;85.35;100985.87;1760102;79;20993;-55
2020/12/01 10:44:36;;;;;;;13.43;8.90;;;;;;;0.68;85.58;100972.11;1760372;79;21003;-55
2020/12/01 10:47:05;;;;;;;13.13;8.08;;;;;;;0.71;85.82;100984.55;1765644;79;20954;-53
2020/12/01 10:49:34;;;;;;;12.53;8.13;;;;;;;0.70;85.81;100975.69;1765913;79;21744;-53
2020/12/01 10:52:02;;;;;;;11.25;7.70;;;;;;;0.66;85.96;100975.64;1761304;79;21633;-52
2020/12/01 10:54:31;;;;;;;12.43;7.40;;;;;;;0.63;86.20;100978.25;1762295;79;21264;-58
2020/12/01 10:56:58;;;;;;;10.98;7.60;;;;;;;0.63;86.33;100972.94;1763993;79;21155;-53
2020/12/01 10:59:26;;;;;;;14.28;7.70;;;;;;;0.61;86.69;100980.02;1763640;79;20950;-52
2020/12/01 11:01:54;;;;;;;14.60;7.95;;;;;;;0.57;87.14;100980.84;1767107;79;20973;-51
2020/12/01 11:04:22;;;;;;;12.93;8.80;;;;;;;0.54;87.28;100971.55;1771314;79;21552;-54
2020/12/01 11:06:50;;;;;;;13.28;7.92;;;;;;;0.55;87.57;100977.30;1759996;79;21049;-56
2020/12/01 11:09:19;;;;;;;15.48;8.73;;;;;;;0.56;87.74;100979.08;1771375;79;21139;-56
2020/12/01 11:11:47;;;;;;;13.13;7.87;;;;;;;0.44;87.93;100978.08;1770034;79;20997;-53
2020/12/01 11:14:15;;;;;;;13.93;9.15;;;;;;;0.41;88.25;100977.14;1766871;79;21206;-54
2020/12/01 11:16:43;;;;;;;15.00;9.58;;;;;;;0.38;88.63;100966.52;1745652;79;22214;-50
2020/12/01 11:19:11;;;;;;;14.10;8.50;;;;;;;0.39;88.70;100964.31;1709398;81;21193;-49
2020/12/01 11:21:39;;;;;;;14.90;8.55;;;;;;;0.39;88.96;100958.56;1739922;80;21031;-51
2020/12/01 11:24:07;;;;;;;15.65;9.10;;;;;;;0.44;89.17;100955.97;1739157;80;21115;-51
2020/12/01 11:26:35;;;;;;;13.40;8.25;;;;;;;0.46;89.19;100967.47;1738453;80;21191;-50
2020/12/01 11:29:03;;;;;;;12.03;7.58;;;;;;;0.43;89.05;100956.84;1735874;80;21375;-53
2020/12/01 11:31:35;;;;;;;14.73;9.05;;;;;;;0.39;89.15;100959.89;1735331;80;21507;-55
2020/12/01 11:34:08;;;;;;;14.95;9.70;;;;;;;0.35;89.50;100953.20;1735096;80;21134;-53
2020/12/01 11:36:37;;;;;;;13.68;9.18;;;;;;;0.37;89.71;100956.31;1733828;80;21535;-50
2020/12/01 11:39:08;;;;;;;12.50;9.05;;;;;;;0.40;89.92;100949.72;1731676;80;21008;-55
2020/12/01 11:41:36;;;;;;;13.10;8.40;;;;;;;0.45;90.06;100961.28;1733421;80;22114;-51
2020/12/01 11:44:04;;;;;;;12.53;9.43;;;;;;;0.45;89.80;100970.56;1734741;80;21645;-55
2020/12/01 11:46:32;;;;;;;14.93;9.00;;;;;;;0.42;89.88;100966.54;1731379;80;21124;-55
2020/12/01 11:49:03;;;;;;;14.38;9.73;;;;;;;0.40;89.87;100961.66;1730894;80;21206;-56
2020/12/01 11:51:36;;;;;;;15.88;9.43;;;;;;;0.38;90.17;100951.48;1701083;82;21093;-57
2020/12/01 11:54:05;;;;;;;14.38;8.38;;;;;;;0.40;90.28;100957.69;1736462;80;22107;-55
2020/12/01 11:56:33;;;;;;;13.55;8.50;;;;;;;0.43;90.45;100967.02;1732201;80;21035;-53
2020/12/01 11:59:02;;;;;;;14.33;8.15;;;;;;;0.42;90.54;100958.58;1730767;81;21174;-53
2020/12/01 12:01:30;;;;;;;14.75;9.63;;;;;;;0.44;90.64;100956.85;1734856;80;21558;-53
2020/12/01 12:03:58;;;;;;;12.85;8.78;;;;;;;0.43;90.68;100957.73;1733249;80;21003;-53
2020/12/01 12:06:26;;;;;;;12.23;8.35;;;;;;;0.45;90.64;100949.33;1733549;80;21665;-54
2020/12/01 12:08:54;;;;;;;13.78;9.25;;;;;;;0.45;90.72;100958.63;1731807;81;21131;-56
2020/12/01 12:11:22;;;;;;;13.88;7.87;;;;;;;0.45;90.75;100944.03;1737307;80;21156;-52
2020/12/01 12:13:50;;;;;;;15.00;9.13;;;;;;;0.50;90.84;100954.25;1731247;80;21167;-53
2020/12/01 12:16:18;;;;;;;13.38;8.68;;;;;;;0.53;90.74;100958.69;1733660;80;21458;-57
2020/12/01 12:18:46;;;;;;;12.28;8.75;;;;;;;0.52;90.65;100949.84;1735721;81;22056;-51
2020/12/01 12:21:14;;;;;;;13.58;8.13;;;;;;;0.54;90.69;100950.31;1738315;80;21080;-53
2020/12/01 12:23:41;;;;;;;15.85;8.30;;;;;;;0.55;90.69;100949.44;1738830;80;21624;-53
2020/12/01 12:26:09;;;;;;;11.08;7.20;;;;;;;0.54;90.60;100946.33;1705536;81;21022;-56
2020/12/01 12:28:37;;;;;;;11.57;8.00;;;;;;;0.56;90.50;100941.92;1723933;81;20975;-58
2020/12/01 12:31:05;;;;;;;10.50;7.17;;;;;;;0.54;90.38;100935.72;1724281;81;21519;-55
2020/12/01 12:33:35;;;;;;;10.25;7.47;;;;;;;0.51;90.23;100946.73;1723715;81;20992;-54
2020/12/01 12:36:03;;;;;;;10.32;6.97;;;;;;;0.45;90.41;100949.33;1738735;80;21142;-51
2020/12/01 12:38:31;;;;;;;14.13;7.62;;;;;;;0.44;90.48;100959.50;1738589;80;21154;-51